sensor_id;sensor_type;location;lat;lon;timestamp;pressure;altitude;pressure_sealevel;temperature;humidity
56334;BME280;42240;53.626;55.886;2023-07-28T00:00:39;74307.19;;;-145.10;100.00
56334;BME280;42240;53.626;55.886;2023-07-28T00:02:13;74289.38;;;-145.10;100.00
56334;BME280;42240;53.626;55.886;2023-07-28T00:03:47;74297.28;;;-145.10;100.00
56334;BME280;42240;53.626;55.886;2023-07-28T00:05:20;74307.19;;;-145.10;100.00
56334;BME280;42240;53.626;55.886;2023-07-28T00:06:54;74303.22;;;-145.10;100.00
56334;BME280;42240;53.626;55.886;2023-07-28T00:08:28;74313.09;;;-145.10;100.00
56334;BME280;42240;53.626;55.886;2023-07-28T00:10:05;74340.78;;;-145.10;100.00
56334;BME280;42240;53.626;55.886;2023-07-28T00:11:38;74319.03;;;-145.10;100.00
56334;BME280;42240;53.626;55.886;2023-07-28T00:13:12;74315.09;;;-145.10;100.00
56334;BME280;42240;53.626;55.886;2023-07-28T00:14:49;74311.13;;;-145.10;100.00
56334;BME280;42240;53.626;55.886;2023-07-28T00:16:22;74313.09;;;-145.10;100.00
56334;BME280;42240;53.626;55.886;2023-07-28T00:17:56;74313.09;;;-145.10;100.00
56334;BME280;42240;53.626;55.886;2023-07-28T00:19:31;74307.19;;;-145.10;100.00
56334;BME280;42240;53.626;55.886;2023-07-28T00:21:05;74303.22;;;-145.10;100.00
56334;BME280;42240;53.626;55.886;2023-07-28T00:22:39;74307.19;;;-145.10;100.00
56334;BME280;42240;53.626;55.886;2023-07-28T00:24:13;74307.19;;;-145.10;100.00
56334;BME280;42240;53.626;55.886;2023-07-28T00:25:47;74307.19;;;-145.10;100.00
56334;BME280;42240;53.626;55.886;2023-07-28T00:27:20;74301.25;;;-145.10;100.00
56334;BME280;42240;53.626;55.886;2023-07-28T00:28:54;74305.19;;;-145.10;100.00
56334;BME280;42240;53.626;55.886;2023-07-28T00:30:29;74307.19;;;-145.10;100.00
56334;BME280;42240;53.626;55.886;2023-07-28T00:32:05;74311.13;;;-145.10;100.00
56334;BME280;42240;53.626;55.886;2023-07-28T00:33:39;74309.16;;;-145.10;100.00
56334;BME280;42240;53.626;55.886;2023-07-28T00:35:16;74311.13;;;-145.10;100.00
56334;BME280;42240;53.626;55.886;2023-07-28T00:36:49;74313.09;;;-145.10;100.00
56334;BME280;42240;53.626;55.886;2023-07-28T00:38:23;74319.03;;;-145.10;100.00
56334;BME280;42240;53.626;55.886;2023-07-28T00:39:57;74309.16;;;-145.10;100.00
56334;BME280;42240;53.626;55.886;2023-07-28T00:41:33;74322.97;;;-145.10;100.00
56334;BME280;42240;53.626;55.886;2023-07-28T00:43:07;74338.78;;;-145.10;100.00
56334;BME280;42240;53.626;55.886;2023-07-28T00:44:41;74319.03;;;-145.10;100.00
56334;BME280;42240;53.626;55.886;2023-07-28T00:46:15;74334.84;;;-145.10;100.00
56334;BME280;42240;53.626;55.886;2023-07-28T00:47:52;74319.03;;;-145.10;100.00
56334;BME280;42240;53.626;55.886;2023-07-28T00:49:26;74309.16;;;-145.10;100.00
56334;BME280;42240;53.626;55.886;2023-07-28T00:50:59;74321.00;;;-145.10;100.00
56334;BME280;42240;53.626;55.886;2023-07-28T00:52:33;74322.97;;;-145.10;100.00
56334;BME280;42240;53.626;55.886;2023-07-28T00:54:08;74307.19;;;-145.10;100.00
56334;BME280;42240;53.626;55.886;2023-07-28T00:55:41;74315.09;;;-145.10;100.00
56334;BME280;42240;53.626;55.886;2023-07-28T00:57:15;74303.22;;;-145.10;100.00
56334;BME280;42240;53.626;55.886;2023-07-28T00:58:54;74307.19;;;-145.10;100.00
56334;BME280;42240;53.626;55.886;2023-07-28T01:00:28;74307.19;;;-145.10;100.00
56334;BME280;42240;53.626;55.886;2023-07-28T01:02:02;74303.22;;;-145.10;100.00
56334;BME280;42240;53.626;55.886;2023-07-28T01:03:36;74301.25;;;-145.10;100.00
56334;BME280;42240;53.626;55.886;2023-07-28T01:05:11;74291.38;;;-145.10;100.00
56334;BME280;42240;53.626;55.886;2023-07-28T01:07:09;74299.28;;;-145.10;100.00
56334;BME280;42240;53.626;55.886;2023-07-28T01:08:57;74287.41;;;-145.10;100.00
56334;BME280;42240;53.626;55.886;2023-07-28T01:10:34;74291.38;;;-145.10;100.00
56334;BME280;42240;53.626;55.886;2023-07-28T01:12:08;74275.56;;;-145.10;100.00
56334;BME280;42240;53.626;55.886;2023-07-28T01:13:43;74275.56;;;-145.10;100.00
56334;BME280;42240;53.626;55.886;2023-07-28T01:15:17;74271.59;;;-145.10;100.00
56334;BME280;42240;53.626;55.886;2023-07-28T01:16:53;74303.22;;;-145.10;100.00
56334;BME280;42240;53.626;55.886;2023-07-28T01:18:27;74279.50;;;-145.10;100.00
56334;BME280;42240;53.626;55.886;2023-07-28T01:20:02;74271.59;;;-145.10;100.00
56334;BME280;42240;53.626;55.886;2023-07-28T01:21:37;74263.69;;;-145.10;100.00
56334;BME280;42240;53.626;55.886;2023-07-28T01:25:18;74253.81;;;-145.10;100.00
56334;BME280;42240;53.626;55.886;2023-07-28T01:26:55;74257.78;;;-145.10;100.00
56334;BME280;42240;53.626;55.886;2023-07-28T01:28:33;74259.75;;;-145.10;100.00
56334;BME280;42240;53.626;55.886;2023-07-28T01:30:08;74249.88;;;-145.10;100.00
56334;BME280;42240;53.626;55.886;2023-07-28T01:31:42;74239.97;;;-145.10;100.00
56334;BME280;42240;53.626;55.886;2023-07-28T01:33:19;74212.31;;;-145.10;100.00
56334;BME280;42240;53.626;55.886;2023-07-28T01:34:53;74188.59;;;-145.10;100.00
56334;BME280;42240;53.626;55.886;2023-07-28T01:36:27;74184.66;;;-145.10;100.00
56334;BME280;42240;53.626;55.886;2023-07-28T01:38:00;74170.81;;;-145.10;100.00
56334;BME280;42240;53.626;55.886;2023-07-28T01:39:34;74180.69;;;-145.10;100.00
56334;BME280;42240;53.626;55.886;2023-07-28T01:41:08;74164.88;;;-145.10;100.00
56334;BME280;42240;53.626;55.886;2023-07-28T01:42:42;74160.94;;;-145.10;100.00
56334;BME280;42240;53.626;55.886;2023-07-28T01:44:19;74168.84;;;-145.10;100.00
56334;BME280;42240;53.626;55.886;2023-07-28T01:45:52;74172.78;;;-145.10;100.00
56334;BME280;42240;53.626;55.886;2023-07-28T01:47:27;74170.81;;;-145.10;100.00
56334;BME280;42240;53.626;55.886;2023-07-28T01:49:02;74174.78;;;-145.10;100.00
56334;BME280;42240;53.626;55.886;2023-07-28T01:50:37;74176.75;;;-145.10;100.00
56334;BME280;42240;53.626;55.886;2023-07-28T01:52:11;74180.69;;;-145.10;100.00
56334;BME280;42240;53.626;55.886;2023-07-28T01:53:44;74172.78;;;-145.10;100.00
56334;BME280;42240;53.626;55.886;2023-07-28T01:55:18;74184.66;;;-145.10;100.00
56334;BME280;42240;53.626;55.886;2023-07-28T01:56:51;74176.75;;;-145.10;100.00
56334;BME280;42240;53.626;55.886;2023-07-28T01:58:25;74162.91;;;-145.10;100.00
56334;BME280;42240;53.626;55.886;2023-07-28T01:59:59;74164.88;;;-145.10;100.00
56334;BME280;42240;53.626;55.886;2023-07-28T02:01:34;74149.06;;;-145.10;100.00
56334;BME280;42240;53.626;55.886;2023-07-28T02:03:08;74156.97;;;-145.10;100.00
56334;BME280;42240;53.626;55.886;2023-07-28T02:04:42;74141.16;;;-145.10;100.00
56334;BME280;42240;53.626;55.886;2023-07-28T02:06:15;74131.28;;;-145.10;100.00
56334;BME280;42240;53.626;55.886;2023-07-28T02:07:52;74121.41;;;-145.10;100.00
56334;BME280;42240;53.626;55.886;2023-07-28T02:09:26;74113.50;;;-145.10;100.00
56334;BME280;42240;53.626;55.886;2023-07-28T02:11:00;74111.53;;;-145.10;100.00
56334;BME280;42240;53.626;55.886;2023-07-28T02:12:33;74097.69;;;-145.10;100.00
56334;BME280;42240;53.626;55.886;2023-07-28T02:14:07;74087.81;;;-145.10;100.00
56334;BME280;42240;53.626;55.886;2023-07-28T02:15:41;74085.84;;;-145.10;100.00
56334;BME280;42240;53.626;55.886;2023-07-28T02:17:15;74101.66;;;-145.10;100.00
56334;BME280;42240;53.626;55.886;2023-07-28T02:18:49;74121.41;;;-145.10;100.00
56334;BME280;42240;53.626;55.886;2023-07-28T02:20:22;74113.50;;;-145.10;100.00
56334;BME280;42240;53.626;55.886;2023-07-28T02:21:56;74087.81;;;-145.10;100.00
56334;BME280;42240;53.626;55.886;2023-07-28T02:23:29;74091.78;;;-145.10;100.00
56334;BME280;42240;53.626;55.886;2023-07-28T02:25:04;74081.88;;;-145.10;100.00
56334;BME280;42240;53.626;55.886;2023-07-28T02:26:38;74070.03;;;-145.10;100.00
56334;BME280;42240;53.626;55.886;2023-07-28T02:28:11;74046.31;;;-145.10;100.00
56334;BME280;42240;53.626;55.886;2023-07-28T02:29:45;74020.63;;;-145.10;100.00
56334;BME280;42240;53.626;55.886;2023-07-28T02:31:18;73908.00;;;-145.10;100.00
56334;BME280;42240;53.626;55.886;2023-07-28T02:32:52;73811.16;;;-145.10;100.00
56334;BME280;42240;53.626;55.886;2023-07-28T02:34:26;73718.28;;;-145.10;100.00
56334;BME280;42240;53.626;55.886;2023-07-28T02:35:59;73603.69;;;-145.10;100.00
56334;BME280;42240;53.626;55.886;2023-07-28T02:37:32;73465.38;;;-145.10;100.00
56334;BME280;42240;53.626;55.886;2023-07-28T02:39:06;73398.19;;;-145.10;100.00
56334;BME280;42240;53.626;55.886;2023-07-28T02:40:40;73362.63;;;-145.10;100.00
56334;BME280;42240;53.626;55.886;2023-07-28T02:42:13;73271.75;;;-145.10;100.00
56334;BME280;42240;53.626;55.886;2023-07-28T02:43:47;73214.44;;;-145.10;100.00
56334;BME280;42240;53.626;55.886;2023-07-28T02:45:23;73178.88;;;-145.10;100.00
56334;BME280;42240;53.626;55.886;2023-07-28T02:46:57;73178.88;;;-145.10;98.00
56334;BME280;42240;53.626;55.886;2023-07-28T02:48:31;73180.84;;;-145.10;99.14
56334;BME280;42240;53.626;55.886;2023-07-28T02:50:05;73220.38;;;-145.10;97.93
56334;BME280;42240;53.626;55.886;2023-07-28T02:51:39;73109.75;;;-145.10;96.63
56334;BME280;42240;53.626;55.886;2023-07-28T02:53:13;73145.28;;;-145.10;96.72
56334;BME280;42240;53.626;55.886;2023-07-28T02:54:47;73016.88;;;-145.10;93.59
56334;BME280;42240;53.626;55.886;2023-07-28T02:56:21;72896.38;;;-145.10;92.06
56334;BME280;42240;53.626;55.886;2023-07-28T02:57:56;72866.72;;;-145.10;85.54
56334;BME280;42240;53.626;55.886;2023-07-28T02:59:29;72809.44;;;-145.10;84.71
56334;BME280;42240;53.626;55.886;2023-07-28T03:01:03;72758.09;;;-145.10;81.61
56334;BME280;42240;53.626;55.886;2023-07-28T03:02:42;72815.38;;;-145.10;81.12
56334;BME280;42240;53.626;55.886;2023-07-28T03:04:17;72819.31;;;-145.10;79.52
56334;BME280;42240;53.626;55.886;2023-07-28T03:06:11;72752.16;;;-145.10;79.43
56334;BME280;42240;53.626;55.886;2023-07-28T03:07:47;72683.00;;;-145.10;77.16
56334;BME280;42240;53.626;55.886;2023-07-28T03:09:22;72607.94;;;-145.10;70.06
56334;BME280;42240;53.626;55.886;2023-07-28T03:11:05;72738.31;;;-145.10;72.35
56334;BME280;42240;53.626;55.886;2023-07-28T03:12:39;72758.09;;;-145.10;73.43
56334;BME280;42240;53.626;55.886;2023-07-28T03:14:13;72710.66;;;-145.10;71.88
56334;BME280;42240;53.626;55.886;2023-07-28T03:15:47;72712.66;;;-145.10;70.82
56334;BME280;42240;53.626;55.886;2023-07-28T03:17:24;72669.19;;;-145.10;70.53
56334;BME280;42240;53.626;55.886;2023-07-28T03:19:01;72635.59;;;-145.10;68.69
56334;BME280;42240;53.626;55.886;2023-07-28T03:20:34;72536.84;;;-145.10;63.88
56334;BME280;42240;53.626;55.886;2023-07-28T03:22:09;72461.75;;;-145.10;61.13
56334;BME280;42240;53.626;55.886;2023-07-28T03:23:42;72428.19;;;-145.10;60.34
56334;BME280;42240;53.626;55.886;2023-07-28T03:25:16;72477.56;;;-145.10;57.52
56334;BME280;42240;53.626;55.886;2023-07-28T03:26:51;72378.81;;;-145.10;56.72
56334;BME280;42240;53.626;55.886;2023-07-28T03:28:25;72361.03;;;-145.10;58.62
56334;BME280;42240;53.626;55.886;2023-07-28T03:29:59;72442.00;;;-145.10;57.10
56334;BME280;42240;53.626;55.886;2023-07-28T03:31:33;72363.00;;;-145.10;59.57
56334;BME280;42240;53.626;55.886;2023-07-28T03:33:10;72355.09;;;-145.10;61.37
56334;BME280;42240;53.626;55.886;2023-07-28T03:34:44;72353.13;;;-145.10;58.74
56334;BME280;42240;53.626;55.886;2023-07-28T03:36:21;72321.53;;;-145.10;56.65
56334;BME280;42240;53.626;55.886;2023-07-28T03:37:55;72250.41;;;-145.10;55.69
56334;BME280;42240;53.626;55.886;2023-07-28T03:39:31;72240.53;;;-145.10;52.98
56334;BME280;42240;53.626;55.886;2023-07-28T03:41:06;72224.72;;;-145.10;54.17
56334;BME280;42240;53.626;55.886;2023-07-28T03:42:40;72181.28;;;-145.10;51.50
56334;BME280;42240;53.626;55.886;2023-07-28T03:44:14;72157.56;;;-145.10;52.41
56334;BME280;42240;53.626;55.886;2023-07-28T03:45:49;72135.84;;;-145.10;51.27
56334;BME280;42240;53.626;55.886;2023-07-28T03:47:23;72114.13;;;-145.10;51.71
56334;BME280;42240;53.626;55.886;2023-07-28T03:48:57;72086.47;;;-145.10;47.79
56334;BME280;42240;53.626;55.886;2023-07-28T03:50:31;72090.41;;;-145.10;50.92
56334;BME280;42240;53.626;55.886;2023-07-28T03:52:06;72035.13;;;-145.10;45.73
56334;BME280;42240;53.626;55.886;2023-07-28T03:53:40;72052.88;;;-145.10;44.17
56334;BME280;42240;53.626;55.886;2023-07-28T03:55:13;72029.19;;;-145.10;44.41
56334;BME280;42240;53.626;55.886;2023-07-28T03:56:47;71995.59;;;-145.10;45.41
56334;BME280;42240;53.626;55.886;2023-07-28T03:58:21;71977.84;;;-145.10;46.21
56334;BME280;42240;53.626;55.886;2023-07-28T03:59:55;71997.59;;;-145.10;43.14
56334;BME280;42240;53.626;55.886;2023-07-28T04:01:28;71987.72;;;-145.10;43.96
56334;BME280;42240;53.626;55.886;2023-07-28T04:03:02;71958.09;;;-145.10;44.20
56334;BME280;42240;53.626;55.886;2023-07-28T04:04:37;71969.94;;;-145.10;44.15
56334;BME280;42240;53.626;55.886;2023-07-28T04:06:11;71926.47;;;-145.10;43.06
56334;BME280;42240;53.626;55.886;2023-07-28T04:07:45;71956.09;;;-145.10;43.29
56334;BME280;42240;53.626;55.886;2023-07-28T04:09:21;72023.25;;;-145.10;42.32
56334;BME280;42240;53.626;55.886;2023-07-28T04:10:55;71983.75;;;-145.10;42.93
56334;BME280;42240;53.626;55.886;2023-07-28T04:12:32;71930.44;;;-145.10;41.87
56334;BME280;42240;53.626;55.886;2023-07-28T04:14:06;71869.19;;;-145.10;41.76
56334;BME280;42240;53.626;55.886;2023-07-28T04:15:40;71920.56;;;-145.10;39.58
56334;BME280;42240;53.626;55.886;2023-07-28T04:17:14;71888.97;;;-145.10;41.03
56334;BME280;42240;53.626;55.886;2023-07-28T04:18:47;71873.16;;;-145.10;40.23
56334;BME280;42240;53.626;55.886;2023-07-28T04:20:21;71877.09;;;-145.10;39.17
56334;BME280;42240;53.626;55.886;2023-07-28T04:21:58;71849.44;;;-145.10;38.34
56334;BME280;42240;53.626;55.886;2023-07-28T04:23:39;71906.72;;;-145.10;38.56
56334;BME280;42240;53.626;55.886;2023-07-28T04:25:12;71883.03;;;-145.10;38.83
56334;BME280;42240;53.626;55.886;2023-07-28T04:26:51;71798.09;;;-145.10;37.83
56334;BME280;42240;53.626;55.886;2023-07-28T04:28:24;71798.09;;;-145.10;37.86
56334;BME280;42240;53.626;55.886;2023-07-28T04:29:59;71869.19;;;-145.10;37.48
56334;BME280;42240;53.626;55.886;2023-07-28T04:31:35;71821.81;;;-145.10;36.90
56334;BME280;42240;53.626;55.886;2023-07-28T04:33:12;71833.66;;;-145.10;37.74
56334;BME280;42240;53.626;55.886;2023-07-28T04:34:45;71869.19;;;-145.10;35.87
56334;BME280;42240;53.626;55.886;2023-07-28T04:36:43;71885.00;;;-145.10;36.08
56334;BME280;42240;53.626;55.886;2023-07-28T04:38:20;71912.66;;;-145.10;35.42
56334;BME280;42240;53.626;55.886;2023-07-28T04:40:00;71934.38;;;-145.10;36.61
56334;BME280;42240;53.626;55.886;2023-07-28T04:41:40;71841.56;;;-145.10;37.59
56334;BME280;42240;53.626;55.886;2023-07-28T04:43:14;71908.72;;;-145.10;36.17
56334;BME280;42240;53.626;55.886;2023-07-28T04:44:55;71847.47;;;-145.10;37.97
56334;BME280;42240;53.626;55.886;2023-07-28T04:46:30;71936.34;;;-145.10;36.76
56334;BME280;42240;53.626;55.886;2023-07-28T04:48:08;72041.03;;;-145.10;38.03
56334;BME280;42240;53.626;55.886;2023-07-28T04:49:42;72003.50;;;-145.10;37.83
56334;BME280;42240;53.626;55.886;2023-07-28T04:51:16;71952.16;;;-145.10;37.07
56334;BME280;42240;53.626;55.886;2023-07-28T04:53:12;71997.59;;;-145.10;37.97
56334;BME280;42240;53.626;55.886;2023-07-28T04:55:09;71987.72;;;-145.10;38.27
56334;BME280;42240;53.626;55.886;2023-07-28T04:56:43;71975.84;;;-145.10;36.72
56334;BME280;42240;53.626;55.886;2023-07-28T04:58:16;71883.03;;;-145.10;37.47
56334;BME280;42240;53.626;55.886;2023-07-28T04:59:53;71827.72;;;-145.10;37.00
56334;BME280;42240;53.626;55.886;2023-07-28T05:01:27;71746.75;;;-145.10;34.93
56334;BME280;42240;53.626;55.886;2023-07-28T05:03:00;71821.81;;;-145.10;34.64
56334;BME280;42240;53.626;55.886;2023-07-28T05:04:39;71865.25;;;-145.10;35.64
56334;BME280;42240;53.626;55.886;2023-07-28T05:06:13;71873.16;;;-145.10;36.52
56334;BME280;42240;53.626;55.886;2023-07-28T05:07:48;72015.34;;;-145.10;37.70
56334;BME280;42240;53.626;55.886;2023-07-28T05:09:21;71912.66;;;-145.10;37.29
56334;BME280;42240;53.626;55.886;2023-07-28T05:10:56;71979.81;;;-145.10;36.82
56334;BME280;42240;53.626;55.886;2023-07-28T05:12:31;71985.72;;;-145.10;37.06
56334;BME280;42240;53.626;55.886;2023-07-28T05:14:04;71987.72;;;-145.10;36.78
56334;BME280;42240;53.626;55.886;2023-07-28T05:15:39;71912.66;;;-145.10;37.40
56334;BME280;42240;53.626;55.886;2023-07-28T05:17:17;71910.69;;;-145.10;36.17
56334;BME280;42240;53.626;55.886;2023-07-28T05:19:12;71883.03;;;-145.10;35.86
56334;BME280;42240;53.626;55.886;2023-07-28T05:21:04;71815.88;;;-145.10;36.61
56334;BME280;42240;53.626;55.886;2023-07-28T05:22:38;71807.97;;;-145.10;36.05
56334;BME280;42240;53.626;55.886;2023-07-28T05:24:12;71798.09;;;-145.10;36.04
56334;BME280;42240;53.626;55.886;2023-07-28T05:25:46;71719.09;;;-145.10;36.29
56334;BME280;42240;53.626;55.886;2023-07-28T05:27:19;71782.31;;;-145.10;35.20
56334;BME280;42240;53.626;55.886;2023-07-28T05:28:54;71829.69;;;-145.10;34.82
56334;BME280;42240;53.626;55.886;2023-07-28T05:30:28;71859.31;;;-145.10;36.29
56334;BME280;42240;53.626;55.886;2023-07-28T05:32:04;71772.44;;;-145.10;35.99
56334;BME280;42240;53.626;55.886;2023-07-28T05:33:59;71954.13;;;-145.10;36.33
56334;BME280;42240;53.626;55.886;2023-07-28T05:35:33;71890.94;;;-145.10;36.20
56334;BME280;42240;53.626;55.886;2023-07-28T05:37:07;71920.56;;;-145.10;35.90
56334;BME280;42240;53.626;55.886;2023-07-28T05:38:41;72064.75;;;-145.10;38.57
56334;BME280;42240;53.626;55.886;2023-07-28T05:40:14;72039.06;;;-145.10;38.99
56334;BME280;42240;53.626;55.886;2023-07-28T05:41:48;71965.97;;;-145.10;38.65
56334;BME280;42240;53.626;55.886;2023-07-28T05:43:22;72035.13;;;-145.10;38.53
56334;BME280;42240;53.626;55.886;2023-07-28T05:44:59;72129.91;;;-145.10;41.09
56334;BME280;42240;53.626;55.886;2023-07-28T05:46:35;72072.63;;;-145.10;41.47
56334;BME280;42240;53.626;55.886;2023-07-28T05:48:08;71956.09;;;-145.10;38.83
56334;BME280;42240;53.626;55.886;2023-07-28T05:49:42;71914.63;;;-145.10;38.04
56334;BME280;42240;53.626;55.886;2023-07-28T05:51:17;71971.91;;;-145.10;37.79
56334;BME280;42240;53.626;55.886;2023-07-28T05:52:51;71964.00;;;-145.10;37.51
56334;BME280;42240;53.626;55.886;2023-07-28T05:54:25;71896.84;;;-145.10;38.23
56334;BME280;42240;53.626;55.886;2023-07-28T05:56:00;71809.94;;;-145.10;37.91
56334;BME280;42240;53.626;55.886;2023-07-28T05:57:38;71859.31;;;-145.10;36.70
56334;BME280;42240;53.626;55.886;2023-07-28T05:59:14;71879.09;;;-145.10;37.49
56334;BME280;42240;53.626;55.886;2023-07-28T06:00:48;71859.31;;;-145.10;38.28
56334;BME280;42240;53.626;55.886;2023-07-28T06:02:41;71798.09;;;-145.10;37.68
56334;BME280;42240;53.626;55.886;2023-07-28T06:04:27;71774.41;;;-145.10;37.74
56334;BME280;42240;53.626;55.886;2023-07-28T06:06:03;71758.59;;;-145.10;36.09
56334;BME280;42240;53.626;55.886;2023-07-28T06:07:37;71806.00;;;-145.10;37.50
56334;BME280;42240;53.626;55.886;2023-07-28T06:09:10;71770.44;;;-145.10;37.31
56334;BME280;42240;53.626;55.886;2023-07-28T06:10:44;71833.66;;;-145.10;38.23
56334;BME280;42240;53.626;55.886;2023-07-28T06:12:19;71837.59;;;-145.10;38.05
56334;BME280;42240;53.626;55.886;2023-07-28T06:13:52;71918.59;;;-145.10;36.57
56334;BME280;42240;53.626;55.886;2023-07-28T06:15:26;71904.75;;;-145.10;37.49
56334;BME280;42240;53.626;55.886;2023-07-28T06:17:00;71817.84;;;-145.10;38.17
56334;BME280;42240;53.626;55.886;2023-07-28T06:18:37;71813.91;;;-145.10;38.68
56334;BME280;42240;53.626;55.886;2023-07-28T06:20:37;71821.81;;;-145.10;37.80
56334;BME280;42240;53.626;55.886;2023-07-28T06:22:11;71886.97;;;-145.10;37.40
56334;BME280;42240;53.626;55.886;2023-07-28T06:23:49;71819.81;;;-145.10;37.68
56334;BME280;42240;53.626;55.886;2023-07-28T06:25:23;71845.50;;;-145.10;37.50
56334;BME280;42240;53.626;55.886;2023-07-28T06:26:59;71845.50;;;-145.10;36.30
56334;BME280;42240;53.626;55.886;2023-07-28T06:28:33;71922.53;;;-145.10;36.49
56334;BME280;42240;53.626;55.886;2023-07-28T06:30:07;72007.47;;;-145.10;37.92
56334;BME280;42240;53.626;55.886;2023-07-28T06:31:41;71987.72;;;-145.10;39.99
56334;BME280;42240;53.626;55.886;2023-07-28T06:33:15;71991.66;;;-145.10;42.51
56334;BME280;42240;53.626;55.886;2023-07-28T06:34:49;71932.41;;;-145.10;40.41
56334;BME280;42240;53.626;55.886;2023-07-28T06:36:23;71971.91;;;-145.10;39.29
56334;BME280;42240;53.626;55.886;2023-07-28T06:38:00;72092.41;;;-145.10;42.22
56334;BME280;42240;53.626;55.886;2023-07-28T06:39:34;72009.44;;;-145.10;44.18
56334;BME280;42240;53.626;55.886;2023-07-28T06:41:08;72050.91;;;-145.10;41.92
56334;BME280;42240;53.626;55.886;2023-07-28T06:42:42;71997.59;;;-145.10;44.81
56334;BME280;42240;53.626;55.886;2023-07-28T06:44:16;72023.25;;;-145.10;45.69
56334;BME280;42240;53.626;55.886;2023-07-28T06:45:51;72086.47;;;-145.10;44.86
56334;BME280;42240;53.626;55.886;2023-07-28T06:47:25;72082.53;;;-145.10;44.19
56334;BME280;42240;53.626;55.886;2023-07-28T06:49:00;72169.44;;;-145.10;48.19
56334;BME280;42240;53.626;55.886;2023-07-28T06:50:34;72153.63;;;-145.10;49.41
56334;BME280;42240;53.626;55.886;2023-07-28T06:52:07;72191.16;;;-145.10;48.43
56334;BME280;42240;53.626;55.886;2023-07-28T06:53:41;72159.56;;;-145.10;54.81
56334;BME280;42240;53.626;55.886;2023-07-28T06:55:16;72165.47;;;-145.10;51.38
56334;BME280;42240;53.626;55.886;2023-07-28T06:56:50;72220.78;;;-145.10;51.53
56334;BME280;42240;53.626;55.886;2023-07-28T06:58:25;72216.84;;;-145.10;50.61
56334;BME280;42240;53.626;55.886;2023-07-28T06:59:58;72195.09;;;-145.10;52.00
56334;BME280;42240;53.626;55.886;2023-07-28T07:01:35;72143.75;;;-145.10;57.73
56334;BME280;42240;53.626;55.886;2023-07-28T07:03:10;72193.13;;;-145.10;52.74
56334;BME280;42240;53.626;55.886;2023-07-28T07:04:44;72208.94;;;-145.10;53.03
56334;BME280;42240;53.626;55.886;2023-07-28T07:06:18;72293.88;;;-145.10;53.30
56334;BME280;42240;53.626;55.886;2023-07-28T07:07:52;72359.06;;;-145.10;55.14
56334;BME280;42240;53.626;55.886;2023-07-28T07:09:27;72351.16;;;-145.10;56.10
56334;BME280;42240;53.626;55.886;2023-07-28T07:11:01;72284.00;;;-145.10;59.50
56334;BME280;42240;53.626;55.886;2023-07-28T07:12:36;72289.91;;;-145.10;54.88
56334;BME280;42240;53.626;55.886;2023-07-28T07:14:10;72252.38;;;-145.10;60.47
56334;BME280;42240;53.626;55.886;2023-07-28T07:15:44;72224.72;;;-145.10;53.51
56334;BME280;42240;53.626;55.886;2023-07-28T07:17:19;72272.13;;;-145.10;51.67
56334;BME280;42240;53.626;55.886;2023-07-28T07:18:53;72313.63;;;-145.10;59.64
56334;BME280;42240;53.626;55.886;2023-07-28T07:20:26;72256.34;;;-145.10;62.30
56334;BME280;42240;53.626;55.886;2023-07-28T07:21:59;72295.84;;;-145.10;56.77
56334;BME280;42240;53.626;55.886;2023-07-28T07:23:40;72295.84;;;-145.10;59.06
56334;BME280;42240;53.626;55.886;2023-07-28T07:25:36;72307.69;;;-145.10;53.75
56334;BME280;42240;53.626;55.886;2023-07-28T07:27:21;72293.88;;;-145.10;61.02
56334;BME280;42240;53.626;55.886;2023-07-28T07:29:08;72319.53;;;-145.10;59.97
56334;BME280;42240;53.626;55.886;2023-07-28T07:30:45;72295.84;;;-145.10;59.42
56334;BME280;42240;53.626;55.886;2023-07-28T07:32:34;72355.09;;;-145.10;55.12
56334;BME280;42240;53.626;55.886;2023-07-28T07:34:08;72374.84;;;-145.10;59.69
56334;BME280;42240;53.626;55.886;2023-07-28T07:35:45;72361.03;;;-145.10;61.38
56334;BME280;42240;53.626;55.886;2023-07-28T07:37:23;72394.59;;;-145.10;58.38
56334;BME280;42240;53.626;55.886;2023-07-28T07:38:58;72416.34;;;-145.10;58.53
56334;BME280;42240;53.626;55.886;2023-07-28T07:40:32;72426.22;;;-145.10;58.83
56334;BME280;42240;53.626;55.886;2023-07-28T07:42:06;72406.47;;;-145.10;56.75
56334;BME280;42240;53.626;55.886;2023-07-28T07:43:46;72368.94;;;-145.10;62.12
56334;BME280;42240;53.626;55.886;2023-07-28T07:45:20;72386.72;;;-145.10;57.05
56334;BME280;42240;53.626;55.886;2023-07-28T07:47:00;72418.31;;;-145.10;57.84
56334;BME280;42240;53.626;55.886;2023-07-28T07:48:34;72438.06;;;-145.10;58.26
56334;BME280;42240;53.626;55.886;2023-07-28T07:50:08;72438.06;;;-145.10;57.68
56334;BME280;42240;53.626;55.886;2023-07-28T07:51:42;72422.25;;;-145.10;52.52
56334;BME280;42240;53.626;55.886;2023-07-28T07:53:15;72404.47;;;-145.10;58.04
56334;BME280;42240;53.626;55.886;2023-07-28T07:54:49;72376.81;;;-145.10;58.01
56334;BME280;42240;53.626;55.886;2023-07-28T07:56:23;72396.59;;;-145.10;57.32
56334;BME280;42240;53.626;55.886;2023-07-28T07:57:56;72355.09;;;-145.10;60.36
56334;BME280;42240;53.626;55.886;2023-07-28T07:59:30;72372.88;;;-145.10;58.64
56334;BME280;42240;53.626;55.886;2023-07-28T08:01:08;72404.47;;;-145.10;56.41
56334;BME280;42240;53.626;55.886;2023-07-28T08:02:42;72449.91;;;-145.10;57.40
56334;BME280;42240;53.626;55.886;2023-07-28T08:04:18;72445.97;;;-145.10;56.01
56334;BME280;42240;53.626;55.886;2023-07-28T08:05:52;72479.53;;;-145.10;59.29
56334;BME280;42240;53.626;55.886;2023-07-28T08:07:26;72459.78;;;-145.10;57.84